Time;durP1;ratioP1;P1;durP2;ratioP2;P2;SDS_P1;SDS_P2;PMS_P1;PMS_P2;Temp;Humidity;BMP_temperature;BMP_pressure;BME280_temperature;BME280_humidity;BME280_pressure;Samples;Min_cycle;Max_cycle;Signal;HPM_P1;HPM_P2
2021/09/19 00:04:50;;;;;;;21.07;11.03;;;;;;;7.31;100.00;100159.75;20906871;28;20211;-71
2021/09/19 00:14:52;;;;;;;21.27;11.27;;;;;;;7.38;100.00;100155.81;20883187;28;20223;-72
2021/09/19 00:24:56;;;;;;;19.53;10.80;;;;;;;7.37;100.00;100154.97;20904843;28;20291;-72
2021/09/19 00:34:58;;;;;;;17.60;10.20;;;;;;;7.40;100.00;100168.09;20886039;28;20227;-72
2021/09/19 00:45:06;;;;;;;17.50;9.33;;;;;;;7.36;100.00;100163.03;20899775;28;20204;-71
2021/09/19 00:55:10;;;;;;;15.37;9.30;;;;;;;7.33;100.00;100153.44;20891413;28;20228;-71
2021/09/19 01:05:17;;;;;;;12.83;8.23;;;;;;;7.36;100.00;100163.91;20891318;28;20201;-71
2021/09/19 01:15:21;;;;;;;17.13;8.93;;;;;;;7.38;100.00;100171.75;20897166;28;20225;-71
2021/09/19 01:25:26;;;;;;;12.87;7.97;;;;;;;7.34;100.00;100167.56;20881502;28;20195;-70
2021/09/19 01:35:28;;;;;;;10.60;7.10;;;;;;;7.37;100.00;100162.94;20899324;28;20316;-69
2021/09/19 01:45:32;;;;;;;17.33;8.50;;;;;;;7.36;100.00;100173.66;20876519;28;20197;-70
2021/09/19 01:55:35;;;;;;;12.37;7.50;;;;;;;7.39;100.00;100169.03;20898462;28;20315;-69
2021/09/19 02:05:39;;;;;;;11.87;7.13;;;;;;;7.37;100.00;100167.38;20876610;28;20193;-70
2021/09/19 02:15:41;;;;;;;13.97;8.33;;;;;;;7.43;100.00;100159.09;20895283;28;20244;-68
2021/09/19 02:25:45;;;;;;;11.00;6.87;;;;;;;7.41;100.00;100161.84;20882697;28;20229;-70
2021/09/19 02:35:47;;;;;;;12.47;7.47;;;;;;;7.44;100.00;100174.97;20887103;28;20264;-69
2021/09/19 02:45:52;;;;;;;11.03;7.20;;;;;;;7.45;100.00;100168.72;20890074;28;20260;-71
2021/09/19 02:55:55;;;;;;;13.17;7.17;;;;;;;7.48;100.00;100165.03;20882594;28;20317;-72
2021/09/19 03:05:59;;;;;;;10.30;6.67;;;;;;;7.45;100.00;100157.22;20911346;28;20337;-67
2021/09/19 03:16:01;;;;;;;11.77;7.23;;;;;;;7.47;100.00;100153.56;20922277;28;20231;-69
2021/09/19 03:26:05;;;;;;;10.07;6.40;;;;;;;7.43;100.00;100159.97;20920899;28;20261;-70
2021/09/19 03:36:07;;;;;;;10.37;6.17;;;;;;;7.41;100.00;100167.16;20908720;28;20634;-70
2021/09/19 03:46:11;;;;;;;8.60;5.87;;;;;;;7.51;100.00;100157.75;20886562;28;20296;-71
2021/09/19 03:56:16;;;;;;;9.77;5.80;;;;;;;7.47;100.00;100165.97;20908921;28;20550;-70
2021/09/19 04:06:20;;;;;;;6.70;5.63;;;;;;;7.46;100.00;100172.22;20885590;28;20194;-69
2021/09/19 04:16:22;;;;;;;8.97;5.67;;;;;;;7.57;100.00;100173.34;20921108;28;20952;-71
2021/09/19 04:26:26;;;;;;;6.30;4.73;;;;;;;7.51;100.00;100171.03;20890137;28;20219;-71
2021/09/19 04:36:28;;;;;;;7.00;4.70;;;;;;;7.54;100.00;100170.88;20897573;28;20224;-68
2021/09/19 04:46:32;;;;;;;8.10;4.90;;;;;;;7.67;100.00;100171.06;20895477;28;20254;-71
2021/09/19 04:56:34;;;;;;;5.40;4.60;;;;;;;7.77;100.00;100174.06;20888887;28;20224;-72
2021/09/19 05:06:40;;;;;;;4.33;3.50;;;;;;;7.89;100.00;100173.38;20903394;28;20992;-72
2021/09/19 05:16:42;;;;;;;5.07;3.97;;;;;;;8.04;100.00;100180.50;20878614;28;20263;-72
2021/09/19 05:26:46;;;;;;;5.13;3.50;;;;;;;8.22;100.00;100176.78;20900152;28;20206;-70
2021/09/19 05:36:48;;;;;;;3.33;2.97;;;;;;;8.49;100.00;100176.19;20877670;28;20237;-70
2021/09/19 05:46:52;;;;;;;3.70;3.10;;;;;;;8.51;100.00;100176.97;20898608;28;20538;-65
2021/09/19 05:56:55;;;;;;;3.17;2.93;;;;;;;8.67;100.00;100177.78;20881183;28;20220;-71
2021/09/19 06:07:00;;;;;;;2.43;2.30;;;;;;;8.80;100.00;100173.47;20892704;28;20203;-67
2021/09/19 06:17:03;;;;;;;2.53;2.17;;;;;;;8.98;100.00;100172.34;20888254;28;20219;-69
2021/09/19 06:27:07;;;;;;;3.20;2.07;;;;;;;9.20;100.00;100171.03;20884287;28;20387;-65
2021/09/19 06:37:10;;;;;;;2.50;2.30;;;;;;;9.38;100.00;100164.63;20896107;28;20774;-68
2021/09/19 06:47:16;;;;;;;2.17;2.07;;;;;;;9.62;100.00;100173.75;20874952;28;20206;-63
2021/09/19 06:57:18;;;;;;;3.30;2.20;;;;;;;9.78;100.00;100162.13;20895424;28;20219;-66
2021/09/19 07:07:24;;;;;;;2.00;1.77;;;;;;;9.75;100.00;100166.69;20896593;28;20195;-65
2021/09/19 07:17:26;;;;;;;3.87;1.67;;;;;;;9.66;100.00;100169.91;20958950;28;20223;-63
2021/09/19 07:27:31;;;;;;;2.53;1.93;;;;;;;9.64;100.00;100169.19;20947063;28;20292;-66
2021/09/19 07:37:34;;;;;;;1.63;1.50;;;;;;;9.80;100.00;100176.19;20966971;28;20235;-67
2021/09/19 07:47:38;;;;;;;3.40;1.97;;;;;;;9.91;100.00;100195.00;20963292;28;20278;-67
2021/09/19 07:57:40;;;;;;;3.27;1.87;;;;;;;10.00;100.00;100167.78;20981389;28;20554;-63
2021/09/19 08:07:44;;;;;;;1.60;1.50;;;;;;;10.42;100.00;100167.69;20987806;28;20211;-66
2021/09/19 08:17:48;;;;;;;1.40;1.30;;;;;;;10.67;100.00;100182.06;20966214;28;20241;-63
2021/09/19 08:27:53;;;;;;;1.90;1.60;;;;;;;10.17;100.00;100183.53;20986086;28;20179;-64
2021/09/19 08:38:11;;;;;;;1.33;1.23;;;;;;;10.24;100.00;100189.38;20957623;28;20247;-71
2021/09/19 08:48:25;;;;;;;2.03;1.63;;;;;;;10.13;100.00;100189.19;20982965;28;20203;-66
2021/09/19 08:58:28;;;;;;;3.57;1.80;;;;;;;10.14;100.00;100196.25;20964768;28;20211;-67
2021/09/19 09:08:33;;;;;;;1.70;1.60;;;;;;;10.15;100.00;100208.59;20983946;28;20201;-70
2021/09/19 09:18:37;;;;;;;2.03;1.60;;;;;;;10.17;100.00;100207.53;20968758;28;20321;-69
2021/09/19 09:28:45;;;;;;;2.27;1.73;;;;;;;10.07;100.00;100217.09;20973123;28;20667;-70
2021/09/19 09:38:47;;;;;;;1.53;1.43;;;;;;;10.21;100.00;100230.44;20976647;28;20727;-70
2021/09/19 09:48:52;;;;;;;6.43;1.60;;;;;;;10.78;100.00;100232.91;20958829;28;20655;-71
2021/09/19 09:58:56;;;;;;;1.40;1.30;;;;;;;11.36;100.00;100210.25;20974690;28;20228;-69
2021/09/19 10:09:03;;;;;;;3.57;2.07;;;;;;;11.06;100.00;100224.75;20956776;28;20316;-69
2021/09/19 10:19:12;;;;;;;2.20;1.80;;;;;;;10.68;100.00;100226.47;20979898;28;20218;-69
2021/09/19 10:29:20;;;;;;;2.00;1.80;;;;;;;10.42;100.00;100229.03;20957600;28;20662;-70
2021/09/19 10:39:36;;;;;;;1.80;1.70;;;;;;;10.86;100.00;100241.28;20977576;28;20238;-69
2021/09/19 10:49:43;;;;;;;1.80;1.70;;;;;;;10.87;100.00;100242.13;20889141;28;20723;-70
2021/09/19 11:00:15;;;;;;;3.43;2.07;;;;;;;11.03;100.00;100235.66;20850286;28;20286;-69
2021/09/19 11:10:19;;;;;;;2.00;1.80;;;;;;;11.80;100.00;100239.28;20777809;28;20309;-70
2021/09/19 11:20:31;;;;;;;2.83;1.80;;;;;;;11.97;100.00;100238.91;20781389;28;20632;-69
2021/09/19 11:30:35;;;;;;;2.30;2.10;;;;;;;11.84;100.00;100238.94;20818077;28;20234;-70
2021/09/19 11:40:37;;;;;;;2.00;1.80;;;;;;;11.79;100.00;100235.75;20811846;28;20551;-69
2021/09/19 11:50:41;;;;;;;5.03;2.47;;;;;;;11.80;100.00;100241.94;20828993;28;20709;-69
2021/09/19 12:00:44;;;;;;;3.93;2.70;;;;;;;12.26;100.00;100245.72;20827988;28;20660;-70
2021/09/19 12:10:50;;;;;;;3.27;2.97;;;;;;;11.63;100.00;100243.09;20821574;28;20693;-70
2021/09/19 12:20:57;;;;;;;3.97;3.37;;;;;;;11.39;100.00;100252.81;20830559;28;20247;-70
2021/09/19 12:31:01;;;;;;;4.40;3.27;;;;;;;11.37;100.00;100270.75;20824838;28;20315;-70
2021/09/19 12:41:05;;;;;;;3.10;2.77;;;;;;;11.47;100.00;100275.34;20850619;28;20232;-70
2021/09/19 12:51:10;;;;;;;2.67;2.10;;;;;;;11.58;100.00;100263.09;20828458;28;20348;-70
2021/09/19 13:01:16;;;;;;;2.17;2.07;;;;;;;12.00;100.00;100257.44;20827500;28;20257;-70
2021/09/19 13:11:19;;;;;;;2.90;2.10;;;;;;;11.56;100.00;100268.53;20845321;28;20231;-70
2021/09/19 13:21:22;;;;;;;2.57;2.40;;;;;;;11.28;100.00;100271.38;20893386;28;20945;-70
2021/09/19 13:31:27;;;;;;;2.60;2.40;;;;;;;11.30;100.00;100253.44;20881362;28;20227;-70
2021/09/19 13:41:31;;;;;;;3.03;2.00;;;;;;;11.21;100.00;100254.94;20891356;28;20837;-71
2021/09/19 13:51:35;;;;;;;2.47;2.37;;;;;;;10.96;100.00;100261.06;20866444;28;20299;-71
2021/09/19 14:01:38;;;;;;;3.00;2.70;;;;;;;10.88;100.00;100284.72;20882001;28;20312;-70
2021/09/19 14:11:42;;;;;;;4.00;3.20;;;;;;;10.81;100.00;100280.75;20850455;28;20239;-71
2021/09/19 14:21:44;;;;;;;2.80;2.50;;;;;;;10.79;100.00;100301.34;20865948;28;20242;-70
2021/09/19 14:31:52;;;;;;;2.43;2.27;;;;;;;10.78;100.00;100302.31;20885976;28;20226;-70
2021/09/19 14:42:01;;;;;;;3.87;2.70;;;;;;;10.71;100.00;100301.88;20866394;28;20675;-71
2021/09/19 14:52:06;;;;;;;3.03;2.80;;;;;;;10.52;100.00;100313.81;20861669;28;20369;-70
2021/09/19 15:02:11;;;;;;;2.87;2.60;;;;;;;10.23;100.00;100319.19;20876560;28;20273;-70
2021/09/19 15:12:16;;;;;;;2.70;2.50;;;;;;;10.12;100.00;100316.31;20876248;28;20231;-71
2021/09/19 15:22:19;;;;;;;2.97;2.60;;;;;;;10.05;100.00;100328.28;20867500;28;20242;-71
2021/09/19 15:32:24;;;;;;;2.27;2.17;;;;;;;9.99;100.00;100328.69;20879929;28;20254;-70
2021/09/19 15:42:27;;;;;;;2.30;2.20;;;;;;;9.88;100.00;100325.84;20861293;28;20235;-71
2021/09/19 15:52:32;;;;;;;2.60;2.40;;;;;;;9.82;100.00;100323.53;20891318;28;20733;-71
2021/09/19 16:02:35;;;;;;;4.20;2.63;;;;;;;9.71;100.00;100337.50;20880184;28;20715;-71
2021/09/19 16:12:40;;;;;;;2.70;2.50;;;;;;;9.63;100.00;100337.97;20902419;28;20230;-71
2021/09/19 16:22:43;;;;;;;2.30;2.20;;;;;;;9.55;100.00;100350.88;20885174;28;20235;-72
2021/09/19 16:32:49;;;;;;;3.57;2.90;;;;;;;9.43;100.00;100354.25;20891771;28;20291;-71
2021/09/19 16:42:52;;;;;;;3.00;2.80;;;;;;;9.37;100.00;100359.97;20888249;28;20323;-71
2021/09/19 16:52:58;;;;;;;3.17;2.70;;;;;;;9.28;100.00;100373.81;20879225;28;20234;-71
2021/09/19 17:03:01;;;;;;;3.83;3.53;;;;;;;9.21;100.00;100375.13;20876696;28;20325;-72
2021/09/19 17:13:06;;;;;;;2.77;2.57;;;;;;;9.21;100.00;100385.75;20869828;28;20247;-72
2021/09/19 17:23:09;;;;;;;2.73;2.57;;;;;;;9.09;100.00;100397.97;20892154;28;21057;-71
2021/09/19 17:33:13;;;;;;;2.90;2.70;;;;;;;9.00;100.00;100404.69;20854695;28;20329;-72
2021/09/19 17:43:16;;;;;;;4.23;2.63;;;;;;;8.91;100.00;100407.88;20915690;28;20932;-71
2021/09/19 17:53:24;;;;;;;2.60;2.40;;;;;;;8.91;100.00;100429.16;20877368;28;20257;-71
2021/09/19 18:03:30;;;;;;;2.43;2.30;;;;;;;8.79;100.00;100416.53;20887144;28;20230;-71
2021/09/19 18:13:36;;;;;;;2.97;2.77;;;;;;;8.78;100.00;100432.56;20883242;28;20230;-72
2021/09/19 18:23:39;;;;;;;2.77;2.57;;;;;;;8.74;100.00;100434.53;20880485;28;20381;-72
2021/09/19 18:33:48;;;;;;;2.93;2.70;;;;;;;8.73;100.00;100432.81;20881650;28;20241;-72
2021/09/19 18:44:02;;;;;;;2.40;2.30;;;;;;;8.69;100.00;100441.94;20864632;28;20590;-72
2021/09/19 18:54:23;;;;;;;2.77;2.57;;;;;;;8.68;100.00;100448.19;20840355;28;20234;-71
2021/09/19 19:04:28;;;;;;;2.33;2.20;;;;;;;8.73;100.00;100446.13;20785373;28;20285;-71
2021/09/19 19:14:33;;;;;;;2.40;2.27;;;;;;;8.73;100.00;100438.13;20808001;28;20223;-72
2021/09/19 19:24:36;;;;;;;2.10;2.00;;;;;;;8.74;100.00;100434.53;20788411;28;20230;-72
2021/09/19 19:34:40;;;;;;;2.53;2.33;;;;;;;8.76;100.00;100447.75;20805540;28;20228;-72
2021/09/19 19:44:44;;;;;;;3.90;3.50;;;;;;;8.74;100.00;100439.84;20808411;28;20225;-72
2021/09/19 19:54:48;;;;;;;2.97;2.77;;;;;;;8.78;100.00;100457.38;20812313;28;20236;-72
2021/09/19 20:04:52;;;;;;;3.03;2.83;;;;;;;8.70;100.00;100459.59;20816730;28;20911;-72
2021/09/19 20:14:56;;;;;;;3.67;3.37;;;;;;;8.25;100.00;100466.38;20803858;28;20308;-72
2021/09/19 20:25:00;;;;;;;4.53;4.17;;;;;;;7.89;100.00;100482.44;20842115;28;20267;-73
2021/09/19 20:35:04;;;;;;;4.97;4.50;;;;;;;7.76;100.00;100469.84;20796873;28;20323;-74
2021/09/19 20:45:08;;;;;;;4.80;4.43;;;;;;;7.64;100.00;100463.34;20818256;28;20357;-73
2021/09/19 20:55:13;;;;;;;5.77;5.27;;;;;;;7.63;100.00;100471.38;20784100;28;20228;-73
2021/09/19 21:05:15;;;;;;;5.00;4.60;;;;;;;7.67;100.00;100470.31;20836226;28;20275;-74
2021/09/19 21:15:21;;;;;;;5.50;5.00;;;;;;;7.66;100.00;100464.13;20876076;28;20230;-72
2021/09/19 21:25:24;;;;;;;6.50;5.20;;;;;;;7.80;100.00;100490.00;20889422;28;20304;-74
2021/09/19 21:35:28;;;;;;;5.07;4.63;;;;;;;7.77;100.00;100483.06;20889535;28;20240;-73
2021/09/19 21:45:31;;;;;;;3.97;3.57;;;;;;;7.65;100.00;100493.41;20881433;28;20320;-73
2021/09/19 21:55:35;;;;;;;4.33;4.03;;;;;;;7.61;100.00;100481.25;20860996;28;20568;-72
2021/09/19 22:05:39;;;;;;;4.70;4.30;;;;;;;7.67;100.00;100481.78;20871334;28;20212;-72
2021/09/19 22:15:45;;;;;;;4.60;4.20;;;;;;;7.71;100.00;100493.13;20893979;28;20236;-73
2021/09/19 22:25:48;;;;;;;3.70;3.40;;;;;;;7.58;100.00;100483.13;20871604;28;20306;-72
2021/09/19 22:35:52;;;;;;;3.10;2.90;;;;;;;7.47;100.00;100493.41;20892293;28;20250;-72
2021/09/19 22:45:54;;;;;;;2.60;2.40;;;;;;;7.33;100.00;100495.88;20876107;28;20236;-72
2021/09/19 22:55:59;;;;;;;2.83;2.63;;;;;;;7.28;100.00;100494.34;20885624;28;20227;-71
2021/09/19 23:06:02;;;;;;;2.63;2.43;;;;;;;7.36;100.00;100498.38;20882654;28;20239;-72
2021/09/19 23:16:06;;;;;;;2.80;2.60;;;;;;;7.41;100.00;100506.09;20888502;28;20247;-72
2021/09/19 23:26:09;;;;;;;2.50;2.40;;;;;;;7.41;100.00;100495.47;20907244;28;20783;-71
2021/09/19 23:36:13;;;;;;;2.70;2.50;;;;;;;7.42;100.00;100490.09;20884013;28;20234;-72
2021/09/19 23:46:15;;;;;;;2.77;2.57;;;;;;;7.46;100.00;100493.47;20905311;28;20305;-72
2021/09/19 23:56:19;;;;;;;2.43;2.23;;;;;;;7.49;100.00;100493.31;20883361;28;20236;-71
